createdAt,value
2022-07-31T00:00:00.000Z,0.0
2022-07-31T00:02:00.000Z,0.0
2022-07-31T00:04:00.000Z,0.0
2022-07-31T00:06:00.000Z,0.0
2022-07-31T00:08:00.000Z,0.0
2022-07-31T00:10:00.000Z,0.0
2022-07-31T00:12:00.000Z,0.0
2022-07-31T00:14:00.000Z,0.0
2022-07-31T00:16:00.000Z,0.0
2022-07-31T00:18:00.000Z,0.0
2022-07-31T00:20:00.000Z,0.0
2022-07-31T00:22:00.000Z,0.0
2022-07-31T00:24:00.000Z,0.0
2022-07-31T00:26:00.000Z,0.0
2022-07-31T00:28:00.000Z,0.0
2022-07-31T00:30:00.000Z,0.0
2022-07-31T00:32:00.000Z,0.0
2022-07-31T00:34:00.000Z,0.0
2022-07-31T00:36:00.000Z,0.0
2022-07-31T00:38:00.000Z,0.0
2022-07-31T00:40:00.000Z,0.0
2022-07-31T00:42:00.000Z,0.0
2022-07-31T00:44:00.000Z,0.0
2022-07-31T00:46:00.000Z,0.0
2022-07-31T00:48:00.000Z,0.0
2022-07-31T00:50:00.000Z,0.0
2022-07-31T00:52:00.000Z,0.0
2022-07-31T00:54:00.000Z,0.0
2022-07-31T00:56:00.000Z,0.0
2022-07-31T00:58:00.000Z,0.0
2022-07-31T01:00:00.000Z,0.0
2022-07-31T01:02:00.000Z,0.0
2022-07-31T01:04:00.000Z,0.0
2022-07-31T01:06:00.000Z,0.0
2022-07-31T01:08:00.000Z,0.0
2022-07-31T01:10:00.000Z,0.0
2022-07-31T01:12:00.000Z,0.0
2022-07-31T01:14:00.000Z,0.0
2022-07-31T01:16:00.000Z,0.0
2022-07-31T01:18:00.000Z,0.0
2022-07-31T01:20:00.000Z,0.0
2022-07-31T01:22:00.000Z,0.0
2022-07-31T01:24:00.000Z,0.0
2022-07-31T01:26:00.000Z,0.0
2022-07-31T01:28:00.000Z,0.0
2022-07-31T01:30:00.000Z,0.0
2022-07-31T01:32:00.000Z,0.0
2022-07-31T01:34:00.000Z,0.0
2022-07-31T01:36:00.000Z,0.0
2022-07-31T01:38:00.000Z,0.0
2022-07-31T01:40:00.000Z,0.0
2022-07-31T01:42:00.000Z,0.0
2022-07-31T01:44:00.000Z,0.0
2022-07-31T01:46:00.000Z,0.0
2022-07-31T01:48:00.000Z,0.0
2022-07-31T01:50:00.000Z,0.0
2022-07-31T01:52:00.000Z,0.0
2022-07-31T01:54:00.000Z,0.0
2022-07-31T01:56:00.000Z,0.0
2022-07-31T01:58:00.000Z,0.0
2022-07-31T02:00:00.000Z,0.0
2022-07-31T02:02:00.000Z,0.0
2022-07-31T02:04:00.000Z,0.0
2022-07-31T02:06:00.000Z,0.0
2022-07-31T02:08:00.000Z,0.0
2022-07-31T02:10:00.000Z,0.0
2022-07-31T02:12:00.000Z,0.0
2022-07-31T02:14:00.000Z,0.0
2022-07-31T02:16:00.000Z,0.0
2022-07-31T02:18:00.000Z,0.0
2022-07-31T02:20:00.000Z,0.0
2022-07-31T02:22:00.000Z,0.0
2022-07-31T02:24:00.000Z,0.0
2022-07-31T02:26:00.000Z,0.0
2022-07-31T02:28:00.000Z,0.0
2022-07-31T02:30:00.000Z,0.0
2022-07-31T02:32:00.000Z,0.0
2022-07-31T02:34:00.000Z,0.0
2022-07-31T02:36:00.000Z,0.0
2022-07-31T02:38:00.000Z,0.0
2022-07-31T02:40:00.000Z,0.0
2022-07-31T02:42:00.000Z,0.0
2022-07-31T02:44:00.000Z,0.0
2022-07-31T02:46:00.000Z,0.0
2022-07-31T02:48:00.000Z,0.0
2022-07-31T02:50:00.000Z,0.0
2022-07-31T02:52:00.000Z,0.0
2022-07-31T02:54:00.000Z,0.0
2022-07-31T02:56:00.000Z,0.0
2022-07-31T02:58:00.000Z,0.0
2022-07-31T03:00:00.000Z,0.0
2022-07-31T03:02:00.000Z,0.0
2022-07-31T03:04:00.000Z,0.0
2022-07-31T03:06:00.000Z,0.0
2022-07-31T03:08:00.000Z,0.0
2022-07-31T03:10:00.000Z,0.0
2022-07-31T03:12:00.000Z,0.0
2022-07-31T03:14:00.000Z,0.31
2022-07-31T03:16:00.000Z,0.39
2022-07-31T03:18:00.000Z,0.63
2022-07-31T03:20:00.000Z,0.71
2022-07-31T03:22:00.000Z,0.94
2022-07-31T03:24:00.000Z,1.18
2022-07-31T03:26:00.000Z,1.18
2022-07-31T03:28:00.000Z,1.42
2022-07-31T03:30:00.000Z,1.65
2022-07-31T03:32:00.000Z,1.97
2022-07-31T03:34:00.000Z,2.29
2022-07-31T03:36:00.000Z,2.6
2022-07-31T03:38:00.000Z,2.92
2022-07-31T03:40:00.000Z,3.31
2022-07-31T03:42:00.000Z,3.63
2022-07-31T03:44:00.000Z,3.95
2022-07-31T03:46:00.000Z,4.26
2022-07-31T03:48:00.000Z,4.58
2022-07-31T03:50:00.000Z,4.74
2022-07-31T03:52:00.000Z,5.13
2022-07-31T03:54:00.000Z,5.45
2022-07-31T03:56:00.000Z,5.84
2022-07-31T03:58:00.000Z,6.08
2022-07-31T04:00:00.000Z,6.24
2022-07-31T04:02:00.000Z,6.47
2022-07-31T04:04:00.000Z,6.79
2022-07-31T04:06:00.000Z,7.03
2022-07-31T04:08:00.000Z,7.5
2022-07-31T04:10:00.000Z,8.05
2022-07-31T04:12:00.000Z,8.61
2022-07-31T04:14:00.000Z,9.16
2022-07-31T04:16:00.000Z,9.55
2022-07-31T04:18:00.000Z,10.42
2022-07-31T04:20:00.000Z,11.92
2022-07-31T04:22:00.000Z,14.22
2022-07-31T04:24:00.000Z,17.3
2022-07-31T04:26:00.000Z,19.9
2022-07-31T04:28:00.000Z,20.54
2022-07-31T04:30:00.000Z,20.85
2022-07-31T04:32:00.000Z,22.27
2022-07-31T04:34:00.000Z,23.77
2022-07-31T04:36:00.000Z,24.41
2022-07-31T04:38:00.000Z,25.04
2022-07-31T04:40:00.000Z,25.28
2022-07-31T04:42:00.000Z,25.12
2022-07-31T04:44:00.000Z,24.96
2022-07-31T04:46:00.000Z,25.99
2022-07-31T04:48:00.000Z,26.86
2022-07-31T04:50:00.000Z,26.62
2022-07-31T04:52:00.000Z,25.91
2022-07-31T04:54:00.000Z,25.67
2022-07-31T04:56:00.000Z,25.83
2022-07-31T04:58:00.000Z,26.3
2022-07-31T05:00:00.000Z,27.25
2022-07-31T05:02:00.000Z,29.15
2022-07-31T05:04:00.000Z,31.67
2022-07-31T05:06:00.000Z,33.18
2022-07-31T05:08:00.000Z,37.05
2022-07-31T05:10:00.000Z,41.23
2022-07-31T05:12:00.000Z,44.47
2022-07-31T05:14:00.000Z,46.76
2022-07-31T05:16:00.000Z,48.19
2022-07-31T05:18:00.000Z,49.84
2022-07-31T05:20:00.000Z,52.21
2022-07-31T05:22:00.000Z,54.82
2022-07-31T05:24:00.000Z,57.03
2022-07-31T05:26:00.000Z,59.01
2022-07-31T05:28:00.000Z,59.17
2022-07-31T05:30:00.000Z,58.93
2022-07-31T05:32:00.000Z,58.3
2022-07-31T05:34:00.000Z,57.59
2022-07-31T05:36:00.000Z,57.43
2022-07-31T05:38:00.000Z,58.38
2022-07-31T05:40:00.000Z,59.8
2022-07-31T05:42:00.000Z,61.46
2022-07-31T05:44:00.000Z,63.75
2022-07-31T05:46:00.000Z,66.91
2022-07-31T05:48:00.000Z,70.86
2022-07-31T05:50:00.000Z,75.68
2022-07-31T05:52:00.000Z,79.55
2022-07-31T05:54:00.000Z,82.0
2022-07-31T05:56:00.000Z,83.74
2022-07-31T05:58:00.000Z,89.03
2022-07-31T06:00:00.000Z,95.98
2022-07-31T06:02:00.000Z,104.91
2022-07-31T06:04:00.000Z,114.63
2022-07-31T06:06:00.000Z,122.13
2022-07-31T06:08:00.000Z,123.24
2022-07-31T06:10:00.000Z,121.34
2022-07-31T06:12:00.000Z,118.34
2022-07-31T06:14:00.000Z,115.73
2022-07-31T06:16:00.000Z,113.84
2022-07-31T06:18:00.000Z,113.99
2022-07-31T06:20:00.000Z,115.65
2022-07-31T06:22:00.000Z,119.92
2022-07-31T06:24:00.000Z,122.76
2022-07-31T06:26:00.000Z,123.87
2022-07-31T06:28:00.000Z,125.21
2022-07-31T06:30:00.000Z,123.55
2022-07-31T06:32:00.000Z,121.03
2022-07-31T06:34:00.000Z,120.55
2022-07-31T06:36:00.000Z,120.08
2022-07-31T06:38:00.000Z,120.79
2022-07-31T06:40:00.000Z,125.84
2022-07-31T06:42:00.000Z,124.11
2022-07-31T06:44:00.000Z,118.5
2022-07-31T06:46:00.000Z,118.89
2022-07-31T06:48:00.000Z,129.87
2022-07-31T06:50:00.000Z,135.09
2022-07-31T06:52:00.000Z,143.22
2022-07-31T06:54:00.000Z,144.65
2022-07-31T06:56:00.000Z,143.3
2022-07-31T06:58:00.000Z,141.01
2022-07-31T07:00:00.000Z,139.83
2022-07-31T07:02:00.000Z,140.06
2022-07-31T07:04:00.000Z,138.72
2022-07-31T07:06:00.000Z,137.46
2022-07-31T07:08:00.000Z,149.15
2022-07-31T07:10:00.000Z,151.76
2022-07-31T07:12:00.000Z,159.66
2022-07-31T07:14:00.000Z,170.88
2022-07-31T07:16:00.000Z,181.7
2022-07-31T07:18:00.000Z,183.91
2022-07-31T07:20:00.000Z,193.39
2022-07-31T07:22:00.000Z,211.4
2022-07-31T07:24:00.000Z,226.65
2022-07-31T07:26:00.000Z,236.92
2022-07-31T07:28:00.000Z,245.77
2022-07-31T07:30:00.000Z,252.8
2022-07-31T07:32:00.000Z,248.85
2022-07-31T07:34:00.000Z,242.06
2022-07-31T07:36:00.000Z,240.32
2022-07-31T07:38:00.000Z,236.53
2022-07-31T07:40:00.000Z,229.34
2022-07-31T07:42:00.000Z,219.7
2022-07-31T07:44:00.000Z,221.51
2022-07-31T07:46:00.000Z,213.61
2022-07-31T07:48:00.000Z,215.12
2022-07-31T07:50:00.000Z,225.31
2022-07-31T07:52:00.000Z,243.32
2022-07-31T07:54:00.000Z,247.11
2022-07-31T07:56:00.000Z,240.0
2022-07-31T07:58:00.000Z,223.49
2022-07-31T08:00:00.000Z,226.49
2022-07-31T08:02:00.000Z,235.97
2022-07-31T08:04:00.000Z,239.37
2022-07-31T08:06:00.000Z,244.43
2022-07-31T08:08:00.000Z,249.48
2022-07-31T08:10:00.000Z,259.44
2022-07-31T08:12:00.000Z,275.79
2022-07-31T08:14:00.000Z,292.7
2022-07-31T08:16:00.000Z,323.51
2022-07-31T08:18:00.000Z,384.73
2022-07-31T08:20:00.000Z,478.35
2022-07-31T08:22:00.000Z,418.78
2022-07-31T08:24:00.000Z,411.75
2022-07-31T08:26:00.000Z,368.38
2022-07-31T08:28:00.000Z,372.96
2022-07-31T08:30:00.000Z,394.61
2022-07-31T08:32:00.000Z,364.9
2022-07-31T08:34:00.000Z,343.02
2022-07-31T08:36:00.000Z,312.52
2022-07-31T08:38:00.000Z,317.98
2022-07-31T08:40:00.000Z,340.1
2022-07-31T08:42:00.000Z,360.32
2022-07-31T08:44:00.000Z,396.11
2022-07-31T08:46:00.000Z,382.36
2022-07-31T08:48:00.000Z,492.25
2022-07-31T08:50:00.000Z,424.15
2022-07-31T08:52:00.000Z,446.67
2022-07-31T08:54:00.000Z,641.8
2022-07-31T08:56:00.000Z,698.21
2022-07-31T08:58:00.000Z,624.26
2022-07-31T09:00:00.000Z,429.29
2022-07-31T09:02:00.000Z,572.44
2022-07-31T09:04:00.000Z,514.85
2022-07-31T09:06:00.000Z,488.62
2022-07-31T09:08:00.000Z,725.62
2022-07-31T09:10:00.000Z,771.44
2022-07-31T09:12:00.000Z,735.18
2022-07-31T09:14:00.000Z,625.84
2022-07-31T09:16:00.000Z,702.16
2022-07-31T09:18:00.000Z,593.06
2022-07-31T09:20:00.000Z,767.89
2022-07-31T09:22:00.000Z,606.57
2022-07-31T09:24:00.000Z,502.76
2022-07-31T09:26:00.000Z,580.34
2022-07-31T09:28:00.000Z,638.72
2022-07-31T09:30:00.000Z,505.6
2022-07-31T09:32:00.000Z,471.08
2022-07-31T09:34:00.000Z,537.6
2022-07-31T09:36:00.000Z,491.46
2022-07-31T09:38:00.000Z,610.91
2022-07-31T09:40:00.000Z,601.51
2022-07-31T09:42:00.000Z,544.95
2022-07-31T09:44:00.000Z,582.24
2022-07-31T09:46:00.000Z,596.61
2022-07-31T09:48:00.000Z,548.98
2022-07-31T09:50:00.000Z,695.84
2022-07-31T09:52:00.000Z,517.85
2022-07-31T09:54:00.000Z,480.09
2022-07-31T09:56:00.000Z,594.8
2022-07-31T09:58:00.000Z,509.87
2022-07-31T10:00:00.000Z,501.26
2022-07-31T10:02:00.000Z,505.53
2022-07-31T10:04:00.000Z,506.63
2022-07-31T10:06:00.000Z,577.18
2022-07-31T10:08:00.000Z,524.25
2022-07-31T10:10:00.000Z,496.76
2022-07-31T10:12:00.000Z,582.55
2022-07-31T10:14:00.000Z,513.82
2022-07-31T10:16:00.000Z,497.86
2022-07-31T10:18:00.000Z,521.72
2022-07-31T10:20:00.000Z,539.02
2022-07-31T10:22:00.000Z,510.03
2022-07-31T10:24:00.000Z,611.39
2022-07-31T10:26:00.000Z,958.6
2022-07-31T10:28:00.000Z,851.87
2022-07-31T10:30:00.000Z,904.56
2022-07-31T10:32:00.000Z,921.15
2022-07-31T10:34:00.000Z,821.21
2022-07-31T10:36:00.000Z,486.64
2022-07-31T10:38:00.000Z,921.31
2022-07-31T10:40:00.000Z,910.09
2022-07-31T10:42:00.000Z,909.3
2022-07-31T10:44:00.000Z,899.9
2022-07-31T10:46:00.000Z,849.5
2022-07-31T10:48:00.000Z,904.8
2022-07-31T10:50:00.000Z,833.86
2022-07-31T10:52:00.000Z,844.68
2022-07-31T10:54:00.000Z,607.12
2022-07-31T10:56:00.000Z,475.43
2022-07-31T10:58:00.000Z,473.53
2022-07-31T11:00:00.000Z,534.52
2022-07-31T11:02:00.000Z,523.06
2022-07-31T11:04:00.000Z,574.89
2022-07-31T11:06:00.000Z,648.36
2022-07-31T11:08:00.000Z,840.25
2022-07-31T11:10:00.000Z,848.15
2022-07-31T11:12:00.000Z,846.81
2022-07-31T11:14:00.000Z,640.93
2022-07-31T11:16:00.000Z,604.12
2022-07-31T11:18:00.000Z,817.5
2022-07-31T11:20:00.000Z,471.71
2022-07-31T11:22:00.000Z,774.13
2022-07-31T11:24:00.000Z,850.6
2022-07-31T11:26:00.000Z,361.58
2022-07-31T11:28:00.000Z,344.92
2022-07-31T11:30:00.000Z,353.21
2022-07-31T11:32:00.000Z,402.43
2022-07-31T11:34:00.000Z,684.46
2022-07-31T11:36:00.000Z,653.42
2022-07-31T11:38:00.000Z,751.54
2022-07-31T11:40:00.000Z,609.41
2022-07-31T11:42:00.000Z,810.39
2022-07-31T11:44:00.000Z,637.62
2022-07-31T11:46:00.000Z,732.81
2022-07-31T11:48:00.000Z,955.12
2022-07-31T11:50:00.000Z,904.48
2022-07-31T11:52:00.000Z,725.47
2022-07-31T11:54:00.000Z,672.3
2022-07-31T11:56:00.000Z,600.09
2022-07-31T11:58:00.000Z,773.1
2022-07-31T12:00:00.000Z,412.38
2022-07-31T12:02:00.000Z,407.41
2022-07-31T12:04:00.000Z,719.46
2022-07-31T12:06:00.000Z,512.08
2022-07-31T12:08:00.000Z,477.24
2022-07-31T12:10:00.000Z,461.13
2022-07-31T12:12:00.000Z,858.58
2022-07-31T12:14:00.000Z,489.57
2022-07-31T12:16:00.000Z,374.7
2022-07-31T12:18:00.000Z,344.52
2022-07-31T12:20:00.000Z,326.11
2022-07-31T12:22:00.000Z,304.62
2022-07-31T12:24:00.000Z,301.78
2022-07-31T12:26:00.000Z,312.92
2022-07-31T12:28:00.000Z,333.78
2022-07-31T12:30:00.000Z,375.57
2022-07-31T12:32:00.000Z,393.19
2022-07-31T12:34:00.000Z,391.84
2022-07-31T12:36:00.000Z,360.24
2022-07-31T12:38:00.000Z,323.35
2022-07-31T12:40:00.000Z,300.44
2022-07-31T12:42:00.000Z,274.05
2022-07-31T12:44:00.000Z,272.23
2022-07-31T12:46:00.000Z,285.82
2022-07-31T12:48:00.000Z,287.56
2022-07-31T12:50:00.000Z,286.22
2022-07-31T12:52:00.000Z,281.24
2022-07-31T12:54:00.000Z,276.18
2022-07-31T12:56:00.000Z,265.76
2022-07-31T12:58:00.000Z,270.97
2022-07-31T13:00:00.000Z,279.11
2022-07-31T13:02:00.000Z,295.22
2022-07-31T13:04:00.000Z,304.47
2022-07-31T13:06:00.000Z,307.63
2022-07-31T13:08:00.000Z,316.55
2022-07-31T13:10:00.000Z,338.67
2022-07-31T13:12:00.000Z,376.75
2022-07-31T13:14:00.000Z,460.02
2022-07-31T13:16:00.000Z,716.93
2022-07-31T13:18:00.000Z,971.63
2022-07-31T13:20:00.000Z,428.66
2022-07-31T13:22:00.000Z,382.99
2022-07-31T13:24:00.000Z,379.04
2022-07-31T13:26:00.000Z,553.48
2022-07-31T13:28:00.000Z,470.92
2022-07-31T13:30:00.000Z,634.14
2022-07-31T13:32:00.000Z,424.94
2022-07-31T13:34:00.000Z,333.54
2022-07-31T13:36:00.000Z,310.94
2022-07-31T13:38:00.000Z,302.1
2022-07-31T13:40:00.000Z,291.51
2022-07-31T13:42:00.000Z,273.89
2022-07-31T13:44:00.000Z,264.18
2022-07-31T13:46:00.000Z,267.81
2022-07-31T13:48:00.000Z,276.1
2022-07-31T13:50:00.000Z,278.95
2022-07-31T13:52:00.000Z,289.93
2022-07-31T13:54:00.000Z,318.21
2022-07-31T13:56:00.000Z,345.63
2022-07-31T13:58:00.000Z,356.37
2022-07-31T14:00:00.000Z,346.73
2022-07-31T14:02:00.000Z,313.71
2022-07-31T14:04:00.000Z,273.81
2022-07-31T14:06:00.000Z,236.53
2022-07-31T14:08:00.000Z,215.35
2022-07-31T14:10:00.000Z,213.54
2022-07-31T14:12:00.000Z,220.57
2022-07-31T14:14:00.000Z,225.62
2022-07-31T14:16:00.000Z,234.31
2022-07-31T14:18:00.000Z,233.13
2022-07-31T14:20:00.000Z,215.12
2022-07-31T14:22:00.000Z,197.02
2022-07-31T14:24:00.000Z,196.71
2022-07-31T14:26:00.000Z,218.35
2022-07-31T14:28:00.000Z,245.14
2022-07-31T14:30:00.000Z,262.75
2022-07-31T14:32:00.000Z,260.07
2022-07-31T14:34:00.000Z,238.58
2022-07-31T14:36:00.000Z,208.48
2022-07-31T14:38:00.000Z,176.33
2022-07-31T14:40:00.000Z,162.18
2022-07-31T14:42:00.000Z,140.06
2022-07-31T14:44:00.000Z,119.21
2022-07-31T14:46:00.000Z,108.86
2022-07-31T14:48:00.000Z,95.98
2022-07-31T14:50:00.000Z,91.64
2022-07-31T14:52:00.000Z,94.48
2022-07-31T14:54:00.000Z,97.88
2022-07-31T14:56:00.000Z,96.46
2022-07-31T14:58:00.000Z,85.95
2022-07-31T15:00:00.000Z,77.34
2022-07-31T15:02:00.000Z,81.52
2022-07-31T15:04:00.000Z,88.63
2022-07-31T15:06:00.000Z,109.96
2022-07-31T15:08:00.000Z,116.68
2022-07-31T15:10:00.000Z,112.1
2022-07-31T15:12:00.000Z,102.06
2022-07-31T15:14:00.000Z,97.17
2022-07-31T15:16:00.000Z,99.69
2022-07-31T15:18:00.000Z,109.17
2022-07-31T15:20:00.000Z,121.82
2022-07-31T15:22:00.000Z,136.9
2022-07-31T15:24:00.000Z,151.68
2022-07-31T15:26:00.000Z,156.26
2022-07-31T15:28:00.000Z,157.92
2022-07-31T15:30:00.000Z,163.45
2022-07-31T15:32:00.000Z,196.63
2022-07-31T15:34:00.000Z,226.41
2022-07-31T15:36:00.000Z,228.15
2022-07-31T15:38:00.000Z,213.38
2022-07-31T15:40:00.000Z,218.28
2022-07-31T15:42:00.000Z,196.47
2022-07-31T15:44:00.000Z,190.39
2022-07-31T15:46:00.000Z,186.52
2022-07-31T15:48:00.000Z,186.83
2022-07-31T15:50:00.000Z,181.15
2022-07-31T15:52:00.000Z,169.93
2022-07-31T15:54:00.000Z,168.43
2022-07-31T15:56:00.000Z,168.9
2022-07-31T15:58:00.000Z,153.81
2022-07-31T16:00:00.000Z,129.24
2022-07-31T16:02:00.000Z,108.94
2022-07-31T16:04:00.000Z,90.21
2022-07-31T16:06:00.000Z,76.47
2022-07-31T16:08:00.000Z,63.99
2022-07-31T16:10:00.000Z,58.46
2022-07-31T16:12:00.000Z,57.51
2022-07-31T16:14:00.000Z,55.61
2022-07-31T16:16:00.000Z,54.35
2022-07-31T16:18:00.000Z,45.42
2022-07-31T16:20:00.000Z,42.42
2022-07-31T16:22:00.000Z,43.52
2022-07-31T16:24:00.000Z,41.63
2022-07-31T16:26:00.000Z,39.5
2022-07-31T16:28:00.000Z,38.94
2022-07-31T16:30:00.000Z,36.41
2022-07-31T16:32:00.000Z,31.36
2022-07-31T16:34:00.000Z,25.83
2022-07-31T16:36:00.000Z,29.94
2022-07-31T16:38:00.000Z,32.46
2022-07-31T16:40:00.000Z,31.6
2022-07-31T16:42:00.000Z,33.41
2022-07-31T16:44:00.000Z,37.13
2022-07-31T16:46:00.000Z,35.62
2022-07-31T16:48:00.000Z,35.55
2022-07-31T16:50:00.000Z,46.61
2022-07-31T16:52:00.000Z,49.37
2022-07-31T16:54:00.000Z,43.84
2022-07-31T16:56:00.000Z,30.73
2022-07-31T16:58:00.000Z,31.6
2022-07-31T17:00:00.000Z,39.81
2022-07-31T17:02:00.000Z,34.44
2022-07-31T17:04:00.000Z,29.23
2022-07-31T17:06:00.000Z,30.49
2022-07-31T17:08:00.000Z,27.65
2022-07-31T17:10:00.000Z,31.67
2022-07-31T17:12:00.000Z,49.21
2022-07-31T17:14:00.000Z,58.14
2022-07-31T17:16:00.000Z,61.46
2022-07-31T17:18:00.000Z,60.75
2022-07-31T17:20:00.000Z,56.64
2022-07-31T17:22:00.000Z,49.13
2022-07-31T17:24:00.000Z,45.66
2022-07-31T17:26:00.000Z,40.6
2022-07-31T17:28:00.000Z,28.67
2022-07-31T17:30:00.000Z,20.69
2022-07-31T17:32:00.000Z,14.85
2022-07-31T17:34:00.000Z,15.08
2022-07-31T17:36:00.000Z,16.82
2022-07-31T17:38:00.000Z,22.43
2022-07-31T17:40:00.000Z,18.24
2022-07-31T17:42:00.000Z,11.77
2022-07-31T17:44:00.000Z,10.66
2022-07-31T17:46:00.000Z,9.55
2022-07-31T17:48:00.000Z,9.48
2022-07-31T17:50:00.000Z,10.5
2022-07-31T17:52:00.000Z,10.9
2022-07-31T17:54:00.000Z,11.85
2022-07-31T17:56:00.000Z,13.66
2022-07-31T17:58:00.000Z,14.06
2022-07-31T18:00:00.000Z,14.69
2022-07-31T18:02:00.000Z,16.19
2022-07-31T18:04:00.000Z,16.03
2022-07-31T18:06:00.000Z,15.24
2022-07-31T18:08:00.000Z,14.22
2022-07-31T18:10:00.000Z,14.37
2022-07-31T18:12:00.000Z,14.77
2022-07-31T18:14:00.000Z,14.14
2022-07-31T18:16:00.000Z,12.48
2022-07-31T18:18:00.000Z,12.4
2022-07-31T18:20:00.000Z,11.69
2022-07-31T18:22:00.000Z,10.19
2022-07-31T18:24:00.000Z,9.48
2022-07-31T18:26:00.000Z,7.74
2022-07-31T18:28:00.000Z,7.18
2022-07-31T18:30:00.000Z,7.58
2022-07-31T18:32:00.000Z,7.03
2022-07-31T18:34:00.000Z,5.92
2022-07-31T18:36:00.000Z,5.53
2022-07-31T18:38:00.000Z,5.05
2022-07-31T18:40:00.000Z,4.34
2022-07-31T18:42:00.000Z,3.47
2022-07-31T18:44:00.000Z,3.0
2022-07-31T18:46:00.000Z,2.6
2022-07-31T18:48:00.000Z,2.29
2022-07-31T18:50:00.000Z,2.29
2022-07-31T18:52:00.000Z,2.05
2022-07-31T18:54:00.000Z,2.21
2022-07-31T18:56:00.000Z,2.05
2022-07-31T18:58:00.000Z,1.73
2022-07-31T19:00:00.000Z,1.65
2022-07-31T19:02:00.000Z,1.5
2022-07-31T19:04:00.000Z,1.58
2022-07-31T19:06:00.000Z,1.81
2022-07-31T19:08:00.000Z,1.97
2022-07-31T19:10:00.000Z,1.58
2022-07-31T19:12:00.000Z,1.26
2022-07-31T19:14:00.000Z,1.02
2022-07-31T19:16:00.000Z,0.79
2022-07-31T19:18:00.000Z,0.79
2022-07-31T19:20:00.000Z,0.63
2022-07-31T19:22:00.000Z,0.47
2022-07-31T19:24:00.000Z,0.31
2022-07-31T19:26:00.000Z,0.47
2022-07-31T19:28:00.000Z,0.55
2022-07-31T19:30:00.000Z,0.47
2022-07-31T19:32:00.000Z,0.23
2022-07-31T19:34:00.000Z,0.23
2022-07-31T19:36:00.000Z,0.0
2022-07-31T19:38:00.000Z,0.0
2022-07-31T19:40:00.000Z,0.0
2022-07-31T19:42:00.000Z,0.0
2022-07-31T19:44:00.000Z,0.0
2022-07-31T19:46:00.000Z,0.0
2022-07-31T19:48:00.000Z,0.0
2022-07-31T19:50:00.000Z,0.0
2022-07-31T19:52:00.000Z,0.0
2022-07-31T19:54:00.000Z,0.0
2022-07-31T19:56:00.000Z,0.0
2022-07-31T19:58:00.000Z,0.0
2022-07-31T20:00:00.000Z,0.0
2022-07-31T20:02:00.000Z,0.0
2022-07-31T20:04:00.000Z,0.0
2022-07-31T20:06:00.000Z,0.0
2022-07-31T20:08:00.000Z,0.0
2022-07-31T20:10:00.000Z,0.0
2022-07-31T20:12:00.000Z,0.0
2022-07-31T20:14:00.000Z,0.0
2022-07-31T20:16:00.000Z,0.0
2022-07-31T20:18:00.000Z,0.0
2022-07-31T20:20:00.000Z,0.0
2022-07-31T20:22:00.000Z,0.0
2022-07-31T20:24:00.000Z,0.0
2022-07-31T20:26:00.000Z,0.0
2022-07-31T20:28:00.000Z,0.0
2022-07-31T20:30:00.000Z,0.0
2022-07-31T20:32:00.000Z,0.0
2022-07-31T20:34:00.000Z,0.0
2022-07-31T20:36:00.000Z,0.0
2022-07-31T20:38:00.000Z,0.0
2022-07-31T20:40:00.000Z,0.0
2022-07-31T20:42:00.000Z,0.0
2022-07-31T20:44:00.000Z,0.0
2022-07-31T20:46:00.000Z,0.0
2022-07-31T20:48:00.000Z,0.0
2022-07-31T20:50:00.000Z,0.0
2022-07-31T20:52:00.000Z,0.0
2022-07-31T20:54:00.000Z,0.0
2022-07-31T20:56:00.000Z,0.0
2022-07-31T20:58:00.000Z,0.0
2022-07-31T21:00:00.000Z,0.0
2022-07-31T21:02:00.000Z,0.0
2022-07-31T21:04:00.000Z,0.0
2022-07-31T21:06:00.000Z,0.0
2022-07-31T21:08:00.000Z,0.0
2022-07-31T21:10:00.000Z,0.0
2022-07-31T21:12:00.000Z,0.0
2022-07-31T21:14:00.000Z,0.0
2022-07-31T21:16:00.000Z,0.0
2022-07-31T21:18:00.000Z,0.0
2022-07-31T21:20:00.000Z,0.0
2022-07-31T21:22:00.000Z,0.0
2022-07-31T21:24:00.000Z,0.0
2022-07-31T21:26:00.000Z,0.0
2022-07-31T21:28:00.000Z,0.0
2022-07-31T21:30:00.000Z,0.0
2022-07-31T21:32:00.000Z,0.0
2022-07-31T21:34:00.000Z,0.0
2022-07-31T21:36:00.000Z,0.0
2022-07-31T21:38:00.000Z,0.0
2022-07-31T21:40:00.000Z,0.0
2022-07-31T21:42:00.000Z,0.0
2022-07-31T21:44:00.000Z,0.0
2022-07-31T21:46:00.000Z,0.0
2022-07-31T21:48:00.000Z,0.0
2022-07-31T21:50:00.000Z,0.0
2022-07-31T21:52:00.000Z,0.0
2022-07-31T21:54:00.000Z,0.0
2022-07-31T21:56:00.000Z,0.0
2022-07-31T21:58:00.000Z,0.0
2022-07-31T22:00:00.000Z,0.0
2022-07-31T22:02:00.000Z,0.0
2022-07-31T22:04:00.000Z,0.0
2022-07-31T22:06:00.000Z,0.0
2022-07-31T22:08:00.000Z,0.0
2022-07-31T22:10:00.000Z,0.0
2022-07-31T22:12:00.000Z,0.0
2022-07-31T22:14:00.000Z,0.0
2022-07-31T22:16:00.000Z,0.0
2022-07-31T22:18:00.000Z,0.0
2022-07-31T22:20:00.000Z,0.0
2022-07-31T22:22:00.000Z,0.0
2022-07-31T22:24:00.000Z,0.0
2022-07-31T22:26:00.000Z,0.0
2022-07-31T22:28:00.000Z,0.0
2022-07-31T22:30:00.000Z,0.0
2022-07-31T22:32:00.000Z,0.0
2022-07-31T22:34:00.000Z,0.0
2022-07-31T22:36:00.000Z,0.0
2022-07-31T22:38:00.000Z,0.0
2022-07-31T22:40:00.000Z,0.0
2022-07-31T22:42:00.000Z,0.0
2022-07-31T22:44:00.000Z,0.0
2022-07-31T22:46:00.000Z,0.0
2022-07-31T22:48:00.000Z,0.0
2022-07-31T22:50:00.000Z,0.0
2022-07-31T22:52:00.000Z,0.0
2022-07-31T22:54:00.000Z,0.0
2022-07-31T22:56:00.000Z,0.0
2022-07-31T22:58:00.000Z,0.0
2022-07-31T23:00:00.000Z,0.0
2022-07-31T23:02:00.000Z,0.0
2022-07-31T23:04:00.000Z,0.0
2022-07-31T23:06:00.000Z,0.0
2022-07-31T23:08:00.000Z,0.0
2022-07-31T23:10:00.000Z,0.0
2022-07-31T23:12:00.000Z,0.0
2022-07-31T23:14:00.000Z,0.0
2022-07-31T23:16:00.000Z,0.0
2022-07-31T23:18:00.000Z,0.0
2022-07-31T23:20:00.000Z,0.0
2022-07-31T23:22:00.000Z,0.0
2022-07-31T23:24:00.000Z,0.0
2022-07-31T23:26:00.000Z,0.0
2022-07-31T23:28:00.000Z,0.0
2022-07-31T23:30:00.000Z,0.0
2022-07-31T23:32:00.000Z,0.0
2022-07-31T23:34:00.000Z,0.0
2022-07-31T23:36:00.000Z,0.0
2022-07-31T23:38:00.000Z,0.0
2022-07-31T23:40:00.000Z,0.0
2022-07-31T23:42:00.000Z,0.0
2022-07-31T23:44:00.000Z,0.0
2022-07-31T23:46:00.000Z,0.0
2022-07-31T23:48:00.000Z,0.0
2022-07-31T23:50:00.000Z,0.0
2022-07-31T23:52:00.000Z,0.0
2022-07-31T23:54:00.000Z,0.0
2022-07-31T23:56:00.000Z,0.0
2022-07-31T23:58:00.000Z,0.0
